This is the latest recevied weather packets stored in our database for station/object YH8VA-1. If no packets are shown the sender has not sent any weather packets the latest 10 day(s).
| Time | Temp. | Humidity | Pressure | Rain* | Wind** | Luminosity | Snow |
|---|---|---|---|---|---|---|---|
| 1777432779 | 35.56° C | 54% | 999 hPa | - | - | 0 W/m² | - |
| 1777432457 | 34.44° C | 56% | 999 hPa | - | - | 0 W/m² | - |
| 1777432135 | 35° C | 56% | 999 hPa | - | - | 0 W/m² | - |
| 1777431813 | 35° C | 55% | 999 hPa | - | - | 0 W/m² | - |
| 1777431491 | 35.56° C | 55% | 999 hPa | - | - | 0 W/m² | - |
| 1777431169 | 35° C | 56% | 999 hPa | - | - | 0 W/m² | - |
| 1777430847 | 35° C | 55% | 999 hPa | - | - | 0 W/m² | - |
| 1777430524 | 36.11° C | 53% | 999 hPa | - | - | 0 W/m² | - |
| 1777430202 | 35.56° C | 54% | 1000 hPa | - | - | 0 W/m² | - |
| 1777429880 | 35° C | 55% | 1000 hPa | - | - | 0 W/m² | - |
| 1777429558 | 35.56° C | 54% | 999 hPa | - | - | 0 W/m² | - |
| 1777429236 | 35° C | 55% | 1000 hPa | - | - | 0 W/m² | - |
| 1777428914 | 35° C | 55% | 999 hPa | - | - | 0 W/m² | - |
| 1777428592 | 33.89° C | 57% | 999 hPa | - | - | 0 W/m² | - |
| 1777428270 | 35° C | 56% | 999 hPa | - | - | 0 W/m² | - |
| 1777427948 | 35.56° C | 54% | 999 hPa | - | - | 0 W/m² | - |
| 1777427626 | 35.56° C | 54% | 999 hPa | - | - | 0 W/m² | - |
| 1777427304 | 35° C | 56% | 999 hPa | - | - | 0 W/m² | - |
| 1777426982 | 34.44° C | 56% | 1000 hPa | - | - | 0 W/m² | - |
| 1777426660 | 34.44° C | 57% | 1000 hPa | - | - | 0 W/m² | - |
| 1777426338 | 35.56° C | 55% | 1000 hPa | - | - | 0 W/m² | - |
| 1777426016 | 35° C | 55% | 1000 hPa | - | - | 0 W/m² | - |
| 1777425694 | 34.44° C | 58% | 1000 hPa | - | - | 0 W/m² | - |
| 1777425373 | 35° C | 56% | 1000 hPa | - | - | 0 W/m² | - |
| 1777425051 | 34.44° C | 57% | 1000 hPa | - | - | 0 W/m² | - |
* Rain since midnight (hover to see other rain measurements)
** Current wind speed in m/s (hover to see current wind gust speed)